createdAt,value
2017-04-11T00:00:22.577Z,1017.56
2017-04-11T00:05:19.216Z,1017.49
2017-04-11T00:10:15.492Z,1017.49
2017-04-11T00:15:11.794Z,1017.44
2017-04-11T00:20:08.941Z,1017.38
2017-04-11T00:25:05.534Z,1017.41
2017-04-11T00:30:01.835Z,1017.34
2017-04-11T00:34:59.696Z,1017.40
2017-04-11T00:44:58.095Z,1017.34
2017-04-11T00:49:54.071Z,1017.33
2017-04-11T00:54:50.340Z,1017.28
2017-04-11T00:59:46.689Z,1017.28
2017-04-11T01:04:45.495Z,1017.34
2017-04-11T01:09:42.317Z,1017.13
2017-04-11T01:14:39.895Z,1017.17
2017-04-11T01:19:35.715Z,1017.24
2017-04-11T01:24:32.194Z,1017.27
2017-04-11T01:29:28.563Z,1017.21
2017-04-11T01:34:25.525Z,1017.32
2017-04-11T01:39:22.432Z,1017.30
2017-04-11T01:44:19.229Z,1017.30
2017-04-11T01:49:16.102Z,1017.40
2017-04-11T01:54:12.337Z,1017.40
2017-04-11T01:59:08.623Z,1017.36
2017-04-11T02:04:05.076Z,1017.48
2017-04-11T02:09:01.662Z,1017.47
2017-04-11T02:13:59.716Z,1017.45
2017-04-11T02:18:55.837Z,1017.51
2017-04-11T02:23:55.191Z,1017.44
2017-04-11T02:28:50.780Z,1017.50
2017-04-11T02:33:47.332Z,1017.45
2017-04-11T02:38:44.220Z,1017.48
2017-04-11T02:43:41.011Z,1017.51
2017-04-11T02:48:37.367Z,1017.55
2017-04-11T02:53:33.628Z,1017.62
2017-04-11T02:58:30.055Z,1017.56
2017-04-11T03:03:26.496Z,1017.53
2017-04-11T03:08:22.891Z,1017.61
2017-04-11T03:13:19.432Z,1017.68
2017-04-11T03:18:15.889Z,1017.71
2017-04-11T03:23:12.668Z,1017.73
2017-04-11T03:28:09.212Z,1017.67
2017-04-11T03:33:05.579Z,1017.80
2017-04-11T03:38:02.106Z,1017.80
2017-04-11T03:42:58.499Z,1017.85
2017-04-11T03:47:55.082Z,1017.93
2017-04-11T03:52:51.520Z,1017.95
2017-04-11T03:57:48.661Z,1017.96
2017-04-11T04:02:44.890Z,1017.85
2017-04-11T04:07:41.552Z,1018.02
2017-04-11T04:12:37.931Z,1018.10
2017-04-11T04:17:34.486Z,1018.15
2017-04-11T04:22:30.923Z,1018.21
2017-04-11T04:27:28.163Z,1018.24
2017-04-11T04:32:24.275Z,1018.28
2017-04-11T04:37:20.901Z,1018.34
2017-04-11T04:42:17.314Z,1018.27
2017-04-11T04:47:13.783Z,1018.35
2017-04-11T04:52:10.354Z,1018.29
2017-04-11T04:57:07.264Z,1018.36
2017-04-11T05:02:04.033Z,1018.43
2017-04-11T05:07:00.276Z,1018.41
2017-04-11T05:11:56.769Z,1018.49
2017-04-11T05:16:53.231Z,1018.45
2017-04-11T05:21:49.515Z,1018.45
2017-04-11T05:26:45.909Z,1018.65
2017-04-11T05:31:42.268Z,1018.61
2017-04-11T05:36:39.608Z,1018.67
2017-04-11T05:41:36.111Z,1018.68
2017-04-11T05:46:32.497Z,1018.82
2017-04-11T05:51:29.050Z,1018.89
2017-04-11T05:56:25.386Z,1018.85
2017-04-11T06:01:22.274Z,1018.94
2017-04-11T06:11:23.487Z,1019.01
2017-04-11T06:16:19.981Z,1019.02
2017-04-11T06:21:16.425Z,1019.09
2017-04-11T06:26:12.938Z,1019.22
2017-04-11T06:31:09.223Z,1019.18
2017-04-11T06:36:05.505Z,1019.19
2017-04-11T06:41:02.166Z,1019.17
2017-04-11T06:45:58.462Z,1019.12
2017-04-11T06:50:55.345Z,1019.11
2017-04-11T06:55:51.713Z,1019.04
2017-04-11T07:00:47.953Z,1018.99
2017-04-11T07:05:44.299Z,1019.06
2017-04-11T07:10:40.732Z,1019.00
2017-04-11T07:15:38.167Z,1018.93
2017-04-11T07:20:34.731Z,1018.93
2017-04-11T07:25:32.763Z,1018.87
2017-04-11T07:30:28.861Z,1019.09
2017-04-11T07:35:25.298Z,1018.93
2017-04-11T07:40:21.888Z,1019.11
2017-04-11T07:45:18.845Z,1019.03
2017-04-11T07:50:15.499Z,1019.11
2017-04-11T07:55:12.819Z,1019.23
2017-04-11T08:00:09.275Z,1019.22
2017-04-11T08:05:05.699Z,1019.18
2017-04-11T08:10:02.367Z,1019.27
2017-04-11T08:14:59.022Z,1019.27
2017-04-11T08:19:55.647Z,1019.30
2017-04-11T08:24:52.110Z,1019.39
2017-04-11T08:29:48.679Z,1019.46
2017-04-11T08:34:45.426Z,1019.39
2017-04-11T08:39:41.966Z,1019.29
2017-04-11T08:44:38.870Z,1019.32
2017-04-11T08:49:35.420Z,1019.30
2017-04-11T08:54:32.353Z,1019.45
2017-04-11T08:59:29.164Z,1019.47
2017-04-11T09:04:26.888Z,1019.52
2017-04-11T09:09:23.263Z,1019.48
2017-04-11T09:14:19.807Z,1019.44
2017-04-11T09:19:16.607Z,1019.54
2017-04-11T09:24:13.598Z,1019.48
2017-04-11T09:29:10.641Z,1019.49
2017-04-11T09:34:07.389Z,1019.40
2017-04-11T09:39:03.920Z,1019.38
2017-04-11T09:44:00.298Z,1019.34
2017-04-11T09:48:57.141Z,1019.37
2017-04-11T09:53:53.588Z,1019.39
2017-04-11T09:58:50.610Z,1019.50
2017-04-11T10:03:47.611Z,1019.48
2017-04-11T10:08:45.238Z,1019.55
2017-04-11T10:13:42.801Z,1019.41
2017-04-11T10:18:39.598Z,1019.39
2017-04-11T10:23:36.621Z,1019.48
2017-04-11T10:28:32.973Z,1019.45
2017-04-11T10:33:29.102Z,1019.47
2017-04-11T10:38:26.100Z,1019.37
2017-04-11T10:43:22.375Z,1019.37
2017-04-11T10:48:18.562Z,1019.48
2017-04-11T10:53:14.828Z,1019.49
2017-04-11T10:58:11.815Z,1019.57
2017-04-11T11:03:08.582Z,1019.43
2017-04-11T11:08:04.995Z,1019.54
2017-04-11T11:13:01.402Z,1019.43
2017-04-11T11:17:58.053Z,1019.12
2017-04-11T11:22:56.557Z,1019.23
2017-04-11T11:27:53.098Z,1019.05
2017-04-11T11:32:50.823Z,1018.99
2017-04-11T11:37:49.877Z,1019.00
2017-04-11T11:42:46.690Z,1018.99
2017-04-11T11:47:44.487Z,1018.89
2017-04-11T11:52:41.417Z,1018.81
2017-04-11T11:57:36.497Z,1018.93
2017-04-11T12:02:34.881Z,1018.75
2017-04-11T12:07:30.436Z,1018.64
2017-04-11T12:12:25.513Z,1018.66
2017-04-11T12:17:23.636Z,1018.66
2017-04-11T12:22:18.657Z,1018.69
2017-04-11T12:27:14.729Z,1018.66
2017-04-11T12:32:10.411Z,1018.51
2017-04-11T12:37:06.498Z,1018.45
2017-04-11T12:42:03.135Z,1018.36
2017-04-11T12:46:59.454Z,1018.51
2017-04-11T12:51:56.151Z,1018.37
2017-04-11T12:56:52.526Z,1018.28
2017-04-11T13:01:49.107Z,1018.35
2017-04-11T13:06:45.609Z,1018.44
2017-04-11T13:11:42.369Z,1018.44
2017-04-11T13:16:38.863Z,1018.31
2017-04-11T13:21:35.749Z,1018.29
2017-04-11T13:26:32.365Z,1018.17
2017-04-11T13:31:28.808Z,1018.15
2017-04-11T13:36:25.537Z,1018.12
2017-04-11T13:41:22.108Z,1018.06
2017-04-11T13:46:18.249Z,1017.93
2017-04-11T13:51:15.059Z,1017.86
2017-04-11T13:56:11.620Z,1017.74
2017-04-11T14:01:08.241Z,1017.78
2017-04-11T14:06:04.857Z,1017.79
2017-04-11T14:11:01.175Z,1017.75
2017-04-11T14:15:57.481Z,1017.70
2017-04-11T14:20:54.016Z,1017.74
2017-04-11T14:25:50.147Z,1017.76
2017-04-11T14:30:47.942Z,1017.67
2017-04-11T14:35:44.385Z,1017.46
2017-04-11T14:40:40.936Z,1017.60
2017-04-11T14:45:37.447Z,1017.61
2017-04-11T14:50:33.789Z,1017.52
2017-04-11T14:55:30.199Z,1017.43
2017-04-11T15:00:27.936Z,1017.24
2017-04-11T15:05:24.558Z,1017.27
2017-04-11T15:10:21.699Z,1017.14
2017-04-11T15:15:18.241Z,1017.20
2017-04-11T15:20:15.240Z,1017.09
2017-04-11T15:25:11.958Z,1017.01
2017-04-11T15:30:08.539Z,1017.04
2017-04-11T15:35:05.805Z,1017.05
2017-04-11T15:40:02.252Z,1016.89
2017-04-11T15:44:58.611Z,1016.90
2017-04-11T15:49:55.164Z,1016.90
2017-04-11T15:54:51.857Z,1016.80
2017-04-11T15:59:48.063Z,1016.69
2017-04-11T16:04:44.608Z,1016.64
2017-04-11T16:09:42.174Z,1016.57
2017-04-11T16:14:38.603Z,1016.54
2017-04-11T16:19:36.583Z,1016.39
2017-04-11T16:24:32.626Z,1016.48
2017-04-11T16:29:29.208Z,1016.47
2017-04-11T16:34:25.485Z,1016.35
2017-04-11T16:39:21.810Z,1016.33
2017-04-11T16:44:18.672Z,1016.31
2017-04-11T16:49:15.876Z,1016.26
2017-04-11T16:54:12.258Z,1016.20
2017-04-11T16:59:08.856Z,1016.31
2017-04-11T17:04:05.421Z,1016.28
2017-04-11T17:09:02.928Z,1016.15
2017-04-11T17:13:59.856Z,1016.23
2017-04-11T17:18:56.777Z,1016.13
2017-04-11T17:23:53.317Z,1016.09
2017-04-11T17:28:49.913Z,1016.03
2017-04-11T17:33:45.932Z,1016.02
2017-04-11T17:38:42.675Z,1015.93
2017-04-11T17:43:39.193Z,1015.86
2017-04-11T17:48:36.225Z,1015.81
2017-04-11T17:53:34.000Z,1015.80
2017-04-11T17:58:30.350Z,1015.83
2017-04-11T18:03:27.515Z,1015.84
2017-04-11T18:08:24.373Z,1015.87
2017-04-11T18:13:21.354Z,1015.86
2017-04-11T18:18:17.711Z,1015.90
2017-04-11T18:23:15.154Z,1015.75
2017-04-11T18:28:11.947Z,1015.80
2017-04-11T18:33:08.790Z,1015.94
2017-04-11T18:38:05.299Z,1015.90
2017-04-11T18:43:01.842Z,1015.88
2017-04-11T18:47:58.422Z,1015.92
2017-04-11T18:52:54.992Z,1015.81
2017-04-11T18:57:51.775Z,1015.83
2017-04-11T19:02:49.561Z,1015.79
2017-04-11T19:07:45.746Z,1015.78
2017-04-11T19:12:42.546Z,1015.89
2017-04-11T19:17:39.264Z,1015.97
2017-04-11T19:22:35.817Z,1015.97
2017-04-11T19:27:32.235Z,1015.97
2017-04-11T19:32:28.634Z,1015.92
2017-04-11T19:37:25.827Z,1016.03
2017-04-11T19:42:22.888Z,1016.02
2017-04-11T19:47:19.697Z,1015.86
2017-04-11T19:52:17.147Z,1015.82
2017-04-11T19:57:13.433Z,1015.85
2017-04-11T20:02:09.926Z,1015.69
2017-04-11T20:07:06.569Z,1015.61
2017-04-11T20:12:03.134Z,1015.56
2017-04-11T20:16:59.518Z,1015.57
2017-04-11T20:21:56.118Z,1015.60
2017-04-11T20:26:52.563Z,1015.61
2017-04-11T20:31:49.289Z,1015.64
2017-04-11T20:36:46.231Z,1015.63
2017-04-11T20:41:42.625Z,1015.70
2017-04-11T20:46:39.031Z,1015.71
2017-04-11T20:51:35.645Z,1015.78
2017-04-11T20:56:32.222Z,1015.71
2017-04-11T21:01:28.501Z,1015.67
2017-04-11T21:06:25.353Z,1015.65
2017-04-11T21:11:21.998Z,1015.57
2017-04-11T21:16:18.711Z,1015.53
2017-04-11T21:21:15.495Z,1015.58
2017-04-11T21:26:12.098Z,1015.50
2017-04-11T21:31:08.729Z,1015.47
2017-04-11T21:36:07.027Z,1015.42
2017-04-11T21:41:02.920Z,1015.29
2017-04-11T21:45:59.810Z,1015.34
2017-04-11T21:50:57.402Z,1015.29
2017-04-11T21:55:53.527Z,1015.32
2017-04-11T22:00:50.054Z,1015.21
2017-04-11T22:05:46.381Z,1015.28
2017-04-11T22:10:42.839Z,1015.22
2017-04-11T22:15:39.542Z,1015.26
2017-04-11T22:20:35.982Z,1015.18
2017-04-11T22:25:34.950Z,1015.10
2017-04-11T22:30:31.460Z,1014.94
2017-04-11T22:35:28.493Z,1015.12
2017-04-11T22:40:24.954Z,1015.02
2017-04-11T22:45:21.987Z,1014.83
2017-04-11T22:50:18.650Z,1014.77
2017-04-11T22:55:15.107Z,1014.65
2017-04-11T23:00:11.301Z,1014.61
2017-04-11T23:05:08.379Z,1014.45
2017-04-11T23:10:04.947Z,1014.47
2017-04-11T23:15:01.829Z,1014.33
2017-04-11T23:19:59.311Z,1014.42
2017-04-11T23:24:56.006Z,1014.46
2017-04-11T23:29:52.560Z,1014.47
2017-04-11T23:34:48.699Z,1014.41
2017-04-11T23:39:45.408Z,1014.41
2017-04-11T23:44:41.879Z,1014.42
2017-04-11T23:49:38.551Z,1014.38
2017-04-11T23:54:34.993Z,1014.40
2017-04-11T23:59:31.606Z,1014.20
